createdAt,value
2022-07-28T00:00:00.006Z,80.44
2022-07-28T00:00:35.513Z,78.91
2022-07-28T00:01:10.515Z,78.27
2022-07-28T00:01:45.804Z,79.52
2022-07-28T00:02:21.020Z,78.10
2022-07-28T00:02:56.442Z,76.98
2022-07-28T00:03:31.701Z,77.70
2022-07-28T00:04:06.902Z,77.90
2022-07-28T00:04:42.093Z,78.20
2022-07-28T00:05:17.300Z,78.61
2022-07-28T00:05:52.895Z,77.09
2022-07-28T00:06:28.485Z,76.98
2022-07-28T00:07:03.795Z,78.10
2022-07-28T00:07:38.995Z,78.41
2022-07-28T00:08:15.190Z,78.30
2022-07-28T00:08:50.497Z,78.81
2022-07-28T00:09:25.872Z,78.41
2022-07-28T00:10:01.133Z,79.83
2022-07-28T00:10:36.172Z,80.17
2022-07-28T00:11:11.364Z,79.02
2022-07-28T00:11:51.462Z,78.51
2022-07-28T00:12:21.882Z,76.92
2022-07-28T00:12:56.994Z,77.59
2022-07-28T00:13:32.180Z,77.09
2022-07-28T00:14:07.166Z,77.12
2022-07-28T00:14:41.964Z,77.29
2022-07-28T00:15:17.262Z,78.71
2022-07-28T00:15:52.641Z,78.71
2022-07-28T00:16:28.061Z,77.70
2022-07-28T00:17:03.267Z,77.12
2022-07-28T00:17:38.377Z,77.22
2022-07-28T00:18:13.463Z,78.55
2022-07-28T00:18:48.678Z,78.64
2022-07-28T00:19:23.962Z,77.53
2022-07-28T00:19:59.256Z,77.56
2022-07-28T00:20:34.465Z,78.24
2022-07-28T00:21:09.650Z,78.64
2022-07-28T00:21:44.667Z,78.04
2022-07-28T00:22:19.755Z,78.44
2022-07-28T00:22:55.083Z,77.97
2022-07-28T00:23:33.889Z,78.28
2022-07-28T00:24:05.997Z,78.55
2022-07-28T00:24:41.112Z,78.44
2022-07-28T00:25:16.514Z,77.47
2022-07-28T00:25:51.538Z,79.05
2022-07-28T00:26:26.978Z,79.70
2022-07-28T00:27:02.480Z,78.58
2022-07-28T00:27:37.689Z,79.56
2022-07-28T00:28:12.869Z,79.29
2022-07-28T00:28:48.172Z,78.34
2022-07-28T00:29:23.469Z,78.04
2022-07-28T00:29:58.670Z,78.55
2022-07-28T00:30:34.374Z,77.87
2022-07-28T00:31:11.939Z,78.28
2022-07-28T00:31:45.250Z,78.08
2022-07-28T00:32:20.736Z,78.68
2022-07-28T00:32:55.887Z,78.48
2022-07-28T00:33:31.070Z,79.70
2022-07-28T00:34:06.385Z,78.58
2022-07-28T00:34:41.977Z,80.00
2022-07-28T00:35:17.197Z,80.21
2022-07-28T00:35:52.628Z,80.37
2022-07-28T00:36:27.846Z,79.29
2022-07-28T00:37:03.143Z,78.64
2022-07-28T00:37:39.847Z,79.16
2022-07-28T00:38:13.249Z,78.14
2022-07-28T00:38:49.002Z,78.08
2022-07-28T00:39:24.068Z,78.17
2022-07-28T00:39:59.594Z,78.08
2022-07-28T00:40:34.783Z,78.78
2022-07-28T00:41:10.211Z,78.99
2022-07-28T00:41:45.296Z,79.29
2022-07-28T00:42:20.611Z,78.78
2022-07-28T00:42:55.908Z,78.08
2022-07-28T00:43:31.341Z,78.58
2022-07-28T00:44:06.857Z,78.78
2022-07-28T00:44:42.275Z,78.78
2022-07-28T00:45:17.296Z,78.78
2022-07-28T00:45:52.398Z,79.29
2022-07-28T00:46:27.759Z,78.78
2022-07-28T00:47:03.014Z,80.21
2022-07-28T00:47:38.416Z,80.21
2022-07-28T00:48:13.728Z,80.82
2022-07-28T00:48:49.306Z,79.80
2022-07-28T00:49:24.511Z,79.29
2022-07-28T00:49:59.453Z,79.29
2022-07-28T00:50:34.566Z,79.60
2022-07-28T00:51:09.862Z,79.19
2022-07-28T00:51:45.093Z,79.60
2022-07-28T00:52:20.381Z,80.04
2022-07-28T00:52:55.772Z,80.11
2022-07-28T00:53:30.890Z,79.60
2022-07-28T00:54:05.988Z,79.53
2022-07-28T00:54:41.115Z,79.74
2022-07-28T00:55:16.338Z,79.84
2022-07-28T00:56:02.684Z,79.19
2022-07-28T00:56:26.563Z,80.00
2022-07-28T00:57:01.660Z,80.21
2022-07-28T00:57:37.274Z,79.90
2022-07-28T00:58:12.390Z,79.80
2022-07-28T00:58:47.730Z,79.50
2022-07-28T00:59:23.340Z,80.11
2022-07-28T00:59:58.236Z,79.80
2022-07-28T01:00:33.539Z,79.39
2022-07-28T01:01:08.527Z,79.50
2022-07-28T01:01:43.652Z,81.02
2022-07-28T01:02:18.736Z,81.43
2022-07-28T01:02:53.765Z,81.93
2022-07-28T01:03:28.789Z,81.02
2022-07-28T01:04:04.088Z,80.92
2022-07-28T01:04:38.879Z,80.51
2022-07-28T01:05:14.285Z,80.92
2022-07-28T01:05:49.396Z,82.65
2022-07-28T01:06:24.628Z,81.73
2022-07-28T01:06:59.534Z,80.92
2022-07-28T01:07:34.947Z,81.12
2022-07-28T01:08:10.050Z,80.11
2022-07-28T01:08:45.345Z,80.72
2022-07-28T01:09:20.739Z,79.70
2022-07-28T01:09:55.958Z,80.11
2022-07-28T01:10:31.279Z,79.80
2022-07-28T01:11:06.379Z,80.00
2022-07-28T01:11:42.664Z,79.50
2022-07-28T01:12:16.797Z,81.53
2022-07-28T01:12:52.084Z,79.90
2022-07-28T01:13:29.999Z,80.41
2022-07-28T01:14:02.582Z,80.11
2022-07-28T01:14:37.599Z,80.65
2022-07-28T01:15:12.737Z,81.06
2022-07-28T01:15:48.174Z,82.48
2022-07-28T01:16:24.286Z,80.41
2022-07-28T01:16:59.098Z,80.55
2022-07-28T01:17:33.994Z,80.65
2022-07-28T01:18:09.327Z,81.46
2022-07-28T01:18:44.607Z,81.46
2022-07-28T01:19:19.744Z,81.33
2022-07-28T01:19:54.865Z,81.67
2022-07-28T01:20:29.969Z,80.92
2022-07-28T01:21:05.778Z,81.06
2022-07-28T01:21:40.824Z,80.55
2022-07-28T01:22:16.327Z,80.04
2022-07-28T01:22:51.444Z,80.55
2022-07-28T01:23:26.868Z,80.45
2022-07-28T01:24:02.011Z,80.24
2022-07-28T01:24:36.906Z,80.04
2022-07-28T01:25:11.715Z,80.18
2022-07-28T01:25:48.096Z,80.49
2022-07-28T01:26:22.341Z,80.38
2022-07-28T01:26:57.816Z,80.49
2022-07-28T01:27:33.336Z,81.20
2022-07-28T01:28:08.761Z,81.91
2022-07-28T01:28:44.184Z,81.91
2022-07-28T01:29:19.484Z,80.99
2022-07-28T01:29:54.824Z,80.99
2022-07-28T01:30:30.350Z,81.40
2022-07-28T01:31:05.438Z,80.99
2022-07-28T01:31:40.647Z,80.38
2022-07-28T01:32:16.211Z,80.79
2022-07-28T01:32:51.508Z,81.10
2022-07-28T01:33:27.041Z,80.59
2022-07-28T01:34:02.553Z,80.49
2022-07-28T01:34:37.763Z,80.90
2022-07-28T01:35:13.488Z,81.71
2022-07-28T01:35:48.784Z,80.49
2022-07-28T01:36:24.107Z,80.59
2022-07-28T01:36:59.114Z,80.29
2022-07-28T01:37:34.347Z,80.69
2022-07-28T01:38:09.759Z,80.49
2022-07-28T01:38:45.072Z,81.30
2022-07-28T01:39:20.389Z,81.51
2022-07-28T01:39:55.586Z,81.51
2022-07-28T01:40:31.014Z,80.99
2022-07-28T01:41:06.256Z,81.91
2022-07-28T01:41:41.266Z,81.60
2022-07-28T01:42:16.369Z,82.62
2022-07-28T01:42:52.000Z,81.91
2022-07-28T01:43:27.235Z,81.60
2022-07-28T01:44:02.040Z,80.69
2022-07-28T01:44:37.339Z,80.99
2022-07-28T01:45:12.381Z,81.10
2022-07-28T01:45:47.889Z,81.30
2022-07-28T01:46:23.266Z,80.49
2022-07-28T01:46:58.548Z,80.90
2022-07-28T01:47:33.631Z,82.12
2022-07-28T01:48:09.099Z,82.93
2022-07-28T01:48:44.256Z,82.93
2022-07-28T01:49:19.397Z,83.84
2022-07-28T01:49:54.407Z,83.95
2022-07-28T01:50:29.431Z,84.35
2022-07-28T01:51:04.745Z,84.15
2022-07-28T01:51:40.367Z,84.25
2022-07-28T01:52:15.492Z,84.25
2022-07-28T01:52:50.679Z,84.31
2022-07-28T01:53:26.233Z,84.52
2022-07-28T01:54:01.433Z,84.82
2022-07-28T01:54:36.646Z,84.42
2022-07-28T01:55:11.735Z,84.21
2022-07-28T01:55:47.151Z,83.20
2022-07-28T01:56:22.576Z,84.31
2022-07-28T01:56:57.772Z,83.40
2022-07-28T01:57:32.990Z,83.60
2022-07-28T01:58:08.187Z,83.60
2022-07-28T01:58:43.440Z,84.72
2022-07-28T01:59:18.465Z,84.82
2022-07-28T01:59:53.790Z,85.29
2022-07-28T02:00:28.929Z,84.82
2022-07-28T02:01:04.124Z,82.68
2022-07-28T02:01:39.402Z,81.06
2022-07-28T02:02:14.842Z,82.07
2022-07-28T02:02:49.967Z,80.96
2022-07-28T02:03:25.280Z,80.65
2022-07-28T02:04:00.417Z,80.65
2022-07-28T02:04:35.474Z,81.40
2022-07-28T02:05:10.729Z,81.71
2022-07-28T02:05:45.768Z,81.67
2022-07-28T02:06:20.781Z,82.32
2022-07-28T02:06:56.303Z,82.73
2022-07-28T02:07:31.417Z,80.99
2022-07-28T02:08:06.721Z,80.69
2022-07-28T02:08:42.051Z,82.01
2022-07-28T02:09:17.084Z,81.87
2022-07-28T02:09:52.411Z,81.81
2022-07-28T02:10:27.339Z,82.59
2022-07-28T02:11:02.639Z,82.59
2022-07-28T02:11:37.544Z,81.91
2022-07-28T02:12:12.751Z,81.51
2022-07-28T02:12:48.074Z,81.87
2022-07-28T02:13:23.279Z,82.01
2022-07-28T02:13:58.405Z,81.81
2022-07-28T02:14:33.961Z,81.51
2022-07-28T02:15:09.176Z,81.81
2022-07-28T02:15:44.229Z,81.37
2022-07-28T02:16:19.544Z,81.20
2022-07-28T02:16:54.526Z,81.67
2022-07-28T02:17:29.874Z,81.10
2022-07-28T02:18:04.979Z,81.20
2022-07-28T02:18:40.300Z,80.96
2022-07-28T02:19:15.498Z,82.52
2022-07-28T02:19:50.738Z,81.10
2022-07-28T02:20:25.761Z,80.69
2022-07-28T02:21:04.874Z,81.10
2022-07-28T02:21:40.094Z,81.20
2022-07-28T02:22:15.401Z,80.99
2022-07-28T02:22:51.857Z,80.73
2022-07-28T02:23:25.966Z,81.74
2022-07-28T02:24:01.467Z,81.91
2022-07-28T02:24:36.893Z,82.46
2022-07-28T02:25:12.056Z,82.21
2022-07-28T02:25:47.293Z,82.56
2022-07-28T02:26:22.791Z,81.65
2022-07-28T02:26:58.017Z,82.66
2022-07-28T02:27:33.229Z,81.04
2022-07-28T02:28:08.638Z,81.85
2022-07-28T02:28:43.755Z,81.74
2022-07-28T02:29:40.807Z,82.15
2022-07-28T02:29:54.419Z,82.26
2022-07-28T02:30:29.573Z,81.95
2022-07-28T02:31:04.723Z,81.65
2022-07-28T02:31:41.084Z,81.34
2022-07-28T02:32:27.405Z,81.74
2022-07-28T02:32:50.634Z,82.46
2022-07-28T02:34:00.077Z,81.85
2022-07-28T02:34:02.324Z,82.26
2022-07-28T02:34:36.190Z,82.66
2022-07-28T02:35:11.199Z,82.56
2022-07-28T02:35:46.269Z,82.46
2022-07-28T02:36:21.675Z,82.66
2022-07-28T02:36:56.998Z,82.46
2022-07-28T02:37:32.292Z,82.87
2022-07-28T02:38:07.296Z,82.26
2022-07-28T02:38:42.613Z,82.56
2022-07-28T02:39:17.913Z,82.50
2022-07-28T02:39:58.298Z,83.11
2022-07-28T02:40:28.516Z,82.90
2022-07-28T02:41:03.994Z,82.90
2022-07-28T02:41:39.221Z,82.40
2022-07-28T02:42:14.329Z,82.90
2022-07-28T02:42:49.554Z,82.60
2022-07-28T02:43:24.672Z,82.90
2022-07-28T02:43:59.801Z,83.48
2022-07-28T02:44:35.229Z,82.90
2022-07-28T02:45:10.337Z,82.60
2022-07-28T02:45:45.831Z,82.19
2022-07-28T02:46:21.019Z,81.99
2022-07-28T02:46:56.005Z,82.70
2022-07-28T02:47:31.213Z,83.11
2022-07-28T02:48:06.325Z,83.01
2022-07-28T02:48:41.470Z,82.50
2022-07-28T02:49:16.696Z,82.29
2022-07-28T02:49:51.948Z,82.90
2022-07-28T02:50:27.059Z,82.94
2022-07-28T02:51:02.169Z,83.04
2022-07-28T02:51:37.338Z,83.25
2022-07-28T02:52:12.456Z,83.65
2022-07-28T02:52:47.993Z,83.51
2022-07-28T02:53:23.288Z,83.35
2022-07-28T02:53:58.613Z,83.56
2022-07-28T02:54:33.529Z,84.17
2022-07-28T02:55:08.620Z,83.96
2022-07-28T02:55:43.999Z,83.35
2022-07-28T02:56:19.203Z,83.25
2022-07-28T02:56:54.441Z,84.06
2022-07-28T02:57:29.662Z,83.92
2022-07-28T02:58:05.377Z,83.31
2022-07-28T02:58:40.114Z,83.42
2022-07-28T02:59:15.231Z,83.31
2022-07-28T02:59:50.465Z,83.51
2022-07-28T03:00:26.065Z,83.21
2022-07-28T03:01:01.341Z,83.31
2022-07-28T03:01:36.510Z,83.01
2022-07-28T03:02:11.811Z,83.11
2022-07-28T03:02:46.831Z,83.51
2022-07-28T03:03:21.919Z,83.11
2022-07-28T03:03:57.343Z,83.31
2022-07-28T03:04:32.832Z,82.74
2022-07-28T03:05:11.039Z,83.51
2022-07-28T03:05:43.436Z,83.51
2022-07-28T03:06:18.641Z,83.25
2022-07-28T03:06:53.864Z,83.35
2022-07-28T03:07:28.995Z,83.15
2022-07-28T03:08:04.234Z,83.42
2022-07-28T03:08:39.439Z,83.31
2022-07-28T03:09:14.760Z,83.42
2022-07-28T03:09:49.792Z,83.45
2022-07-28T03:10:33.503Z,83.01
2022-07-28T03:11:00.145Z,83.25
2022-07-28T03:11:35.646Z,83.56
2022-07-28T03:12:11.050Z,83.31
2022-07-28T03:12:46.188Z,83.42
2022-07-28T03:13:21.400Z,83.31
2022-07-28T03:13:56.718Z,84.12
2022-07-28T03:14:31.915Z,83.11
2022-07-28T03:15:07.234Z,83.25
2022-07-28T03:15:42.226Z,83.35
2022-07-28T03:16:17.572Z,84.47
2022-07-28T03:16:55.535Z,84.27
2022-07-28T03:17:27.770Z,84.33
2022-07-28T03:18:02.906Z,84.12
2022-07-28T03:18:38.193Z,84.43
2022-07-28T03:19:13.522Z,83.65
2022-07-28T03:19:48.949Z,83.62
2022-07-28T03:20:24.066Z,83.31
2022-07-28T03:20:59.303Z,83.42
2022-07-28T03:21:34.420Z,84.12
2022-07-28T03:22:10.307Z,84.33
2022-07-28T03:22:44.780Z,84.12
2022-07-28T03:23:20.001Z,83.45
2022-07-28T03:23:55.110Z,82.70
2022-07-28T03:24:30.415Z,83.11
2022-07-28T03:25:05.740Z,83.45
2022-07-28T03:25:40.852Z,83.56
2022-07-28T03:26:15.773Z,83.86
2022-07-28T03:26:50.875Z,84.64
2022-07-28T03:27:25.887Z,84.27
2022-07-28T03:28:01.309Z,84.03
2022-07-28T03:28:36.575Z,83.56
2022-07-28T03:29:11.604Z,83.72
2022-07-28T03:29:46.635Z,83.21
2022-07-28T03:30:21.737Z,83.15
2022-07-28T03:30:56.954Z,83.56
2022-07-28T03:31:31.757Z,83.25
2022-07-28T03:32:07.058Z,83.04
2022-07-28T03:32:42.251Z,83.76
2022-07-28T03:33:17.474Z,84.47
2022-07-28T03:33:52.734Z,83.96
2022-07-28T03:34:28.021Z,84.06
2022-07-28T03:35:03.135Z,84.20
2022-07-28T03:35:38.347Z,84.58
2022-07-28T03:36:13.600Z,84.00
2022-07-28T03:36:48.632Z,84.00
2022-07-28T03:37:23.937Z,84.58
2022-07-28T03:37:59.266Z,84.41
2022-07-28T03:38:34.663Z,84.51
2022-07-28T03:39:09.812Z,84.51
2022-07-28T03:39:45.343Z,84.61
2022-07-28T03:40:20.629Z,84.51
2022-07-28T03:40:55.966Z,84.82
2022-07-28T03:41:31.468Z,84.92
2022-07-28T03:42:06.593Z,84.92
2022-07-28T03:42:41.977Z,85.13
2022-07-28T03:43:17.414Z,85.33
2022-07-28T03:43:52.640Z,85.22
2022-07-28T03:44:28.967Z,85.13
2022-07-28T03:45:02.980Z,85.63
2022-07-28T03:45:41.087Z,85.63
2022-07-28T03:46:13.705Z,85.43
2022-07-28T03:46:48.716Z,85.13
2022-07-28T03:47:23.632Z,84.92
2022-07-28T03:47:58.561Z,85.13
2022-07-28T03:48:34.000Z,85.22
2022-07-28T03:49:09.313Z,85.22
2022-07-28T03:49:44.831Z,85.53
2022-07-28T03:50:20.050Z,85.13
2022-07-28T03:50:55.373Z,85.13
2022-07-28T03:51:30.377Z,85.53
2022-07-28T03:52:05.670Z,85.63
2022-07-28T03:52:41.080Z,85.53
2022-07-28T03:53:16.292Z,86.04
2022-07-28T03:53:51.530Z,86.65
2022-07-28T03:54:26.537Z,87.26
2022-07-28T03:55:01.997Z,86.24
2022-07-28T03:55:37.214Z,86.04
2022-07-28T03:56:12.446Z,86.45
2022-07-28T03:56:47.367Z,86.35
2022-07-28T03:57:22.188Z,86.65
2022-07-28T03:57:57.507Z,86.71
2022-07-28T03:58:32.702Z,85.53
2022-07-28T03:59:08.226Z,85.13
2022-07-28T03:59:43.641Z,85.53
2022-07-28T04:00:19.003Z,85.63
2022-07-28T04:00:54.425Z,86.04
2022-07-28T04:01:29.594Z,86.15
2022-07-28T04:02:04.583Z,85.84
2022-07-28T04:02:39.649Z,85.53
2022-07-28T04:03:36.408Z,85.74
2022-07-28T04:03:50.058Z,86.04
2022-07-28T04:04:25.275Z,85.84
2022-07-28T04:05:00.402Z,85.94
2022-07-28T04:05:35.544Z,85.33
2022-07-28T04:06:10.865Z,85.74
2022-07-28T04:06:45.985Z,85.63
2022-07-28T04:07:21.479Z,86.24
2022-07-28T04:07:56.516Z,86.86
2022-07-28T04:08:31.914Z,86.76
2022-07-28T04:09:07.139Z,86.86
2022-07-28T04:09:42.249Z,86.86
2022-07-28T04:10:17.568Z,85.84
2022-07-28T04:10:52.815Z,86.35
2022-07-28T04:11:28.032Z,85.63
2022-07-28T04:12:03.389Z,85.63
2022-07-28T04:12:38.506Z,85.94
2022-07-28T04:13:13.736Z,86.45
2022-07-28T04:13:48.965Z,85.84
2022-07-28T04:14:24.443Z,85.43
2022-07-28T04:15:06.624Z,85.74
2022-07-28T04:15:41.951Z,85.74
2022-07-28T04:16:17.450Z,85.43
2022-07-28T04:16:52.615Z,85.22
2022-07-28T04:17:27.709Z,85.33
2022-07-28T04:18:03.011Z,85.37
2022-07-28T04:18:38.221Z,85.16
2022-07-28T04:19:13.553Z,85.06
2022-07-28T04:19:48.669Z,85.98
2022-07-28T04:20:24.181Z,85.88
2022-07-28T04:20:59.301Z,85.77
2022-07-28T04:21:34.837Z,85.68
2022-07-28T04:22:09.957Z,85.98
2022-07-28T04:22:45.068Z,86.08
2022-07-28T04:23:20.295Z,85.47
2022-07-28T04:23:59.815Z,85.98
2022-07-28T04:24:30.705Z,85.98
2022-07-28T04:25:05.896Z,86.18
2022-07-28T04:25:41.206Z,86.83
2022-07-28T04:26:16.531Z,86.59
2022-07-28T04:26:51.860Z,87.30
2022-07-28T04:27:27.077Z,86.90
2022-07-28T04:28:02.380Z,86.90
2022-07-28T04:28:37.698Z,87.30
2022-07-28T04:29:13.010Z,87.30
2022-07-28T04:29:48.206Z,88.12
2022-07-28T04:30:23.725Z,88.63
2022-07-28T04:30:59.303Z,87.30
2022-07-28T04:31:34.237Z,86.39
2022-07-28T04:32:09.577Z,86.49
2022-07-28T04:32:44.580Z,86.45
2022-07-28T04:33:20.096Z,86.04
2022-07-28T04:33:55.316Z,86.49
2022-07-28T04:34:30.641Z,86.45
2022-07-28T04:35:05.832Z,86.80
2022-07-28T04:35:40.861Z,86.69
2022-07-28T04:36:15.905Z,86.45
2022-07-28T04:36:50.918Z,85.63
2022-07-28T04:37:26.251Z,85.47
2022-07-28T04:38:01.453Z,85.57
2022-07-28T04:38:36.992Z,85.88
2022-07-28T04:39:12.105Z,85.57
2022-07-28T04:39:47.219Z,85.98
2022-07-28T04:40:22.354Z,85.88
2022-07-28T04:40:57.676Z,86.08
2022-07-28T04:41:33.317Z,85.47
2022-07-28T04:42:08.616Z,85.37
2022-07-28T04:42:44.047Z,85.68
2022-07-28T04:43:19.375Z,86.49
2022-07-28T04:43:54.395Z,86.18
2022-07-28T04:44:29.710Z,85.88
2022-07-28T04:45:05.017Z,85.98
2022-07-28T04:45:45.866Z,86.39
2022-07-28T04:46:15.725Z,86.29
2022-07-28T04:46:50.964Z,86.59
2022-07-28T04:47:26.165Z,86.86
2022-07-28T04:48:01.267Z,87.00
2022-07-28T04:48:36.352Z,87.20
2022-07-28T04:49:11.667Z,86.76
2022-07-28T04:49:46.833Z,87.26
2022-07-28T04:50:22.038Z,87.98
2022-07-28T04:50:57.241Z,88.28
2022-07-28T04:51:32.666Z,88.08
2022-07-28T04:52:08.276Z,87.26
2022-07-28T04:52:43.685Z,86.76
2022-07-28T04:53:18.614Z,86.04
2022-07-28T04:53:53.712Z,86.04
2022-07-28T04:54:29.030Z,86.04
2022-07-28T04:55:04.336Z,85.84
2022-07-28T04:55:39.749Z,86.24
2022-07-28T04:56:15.270Z,86.65
2022-07-28T04:56:50.468Z,87.12
2022-07-28T04:57:25.904Z,87.12
2022-07-28T04:58:01.011Z,87.94
2022-07-28T04:58:36.474Z,87.73
2022-07-28T04:59:11.676Z,88.04
2022-07-28T04:59:46.887Z,87.12
2022-07-28T05:00:22.728Z,87.12
2022-07-28T05:00:57.051Z,87.23
2022-07-28T05:01:32.696Z,86.71
2022-07-28T05:02:08.053Z,86.71
2022-07-28T05:02:43.392Z,86.41
2022-07-28T05:03:18.504Z,85.80
2022-07-28T05:03:53.536Z,86.00
2022-07-28T05:04:29.201Z,86.41
2022-07-28T05:05:04.421Z,86.92
2022-07-28T05:05:40.085Z,85.49
2022-07-28T05:06:15.114Z,84.88
2022-07-28T05:06:50.218Z,85.39
2022-07-28T05:07:25.535Z,85.69
2022-07-28T05:08:00.931Z,86.10
2022-07-28T05:08:35.945Z,86.41
2022-07-28T05:09:11.377Z,87.32
2022-07-28T05:09:46.578Z,85.90
2022-07-28T05:10:22.049Z,84.67
2022-07-28T05:10:57.230Z,84.98
2022-07-28T05:11:32.449Z,84.88
2022-07-28T05:12:07.552Z,85.08
2022-07-28T05:12:42.563Z,84.88
2022-07-28T05:13:17.783Z,85.19
2022-07-28T05:13:52.996Z,85.80
2022-07-28T05:14:28.342Z,85.80
2022-07-28T05:15:03.652Z,84.98
2022-07-28T05:15:38.865Z,84.88
2022-07-28T05:16:14.418Z,84.88
2022-07-28T05:16:50.011Z,84.98
2022-07-28T05:17:25.033Z,85.28
2022-07-28T05:18:00.131Z,84.88
2022-07-28T05:18:35.256Z,84.84
2022-07-28T05:19:10.505Z,85.14
2022-07-28T05:19:45.937Z,85.55
2022-07-28T05:20:21.447Z,85.55
2022-07-28T05:20:56.924Z,84.84
2022-07-28T05:21:32.247Z,84.74
2022-07-28T05:22:07.484Z,84.53
2022-07-28T05:22:42.776Z,84.23
2022-07-28T05:23:17.897Z,84.39
2022-07-28T05:23:53.215Z,83.98
2022-07-28T05:24:28.331Z,83.27
2022-07-28T05:25:03.545Z,83.68
2022-07-28T05:25:38.780Z,83.07
2022-07-28T05:26:13.997Z,83.07
2022-07-28T05:26:49.506Z,83.78
2022-07-28T05:27:24.745Z,84.19
2022-07-28T05:27:59.868Z,82.76
2022-07-28T05:28:35.089Z,82.66
2022-07-28T05:29:10.591Z,82.66
2022-07-28T05:29:47.598Z,82.56
2022-07-28T05:30:21.241Z,83.03
2022-07-28T05:30:56.651Z,82.76
2022-07-28T05:31:31.922Z,83.84
2022-07-28T05:32:16.481Z,83.95
2022-07-28T05:32:42.697Z,83.03
2022-07-28T05:33:17.902Z,81.91
2022-07-28T05:33:53.100Z,82.21
2022-07-28T05:34:28.433Z,81.71
2022-07-28T05:35:03.956Z,81.26
2022-07-28T05:35:38.993Z,81.26
2022-07-28T05:36:14.317Z,81.57
2022-07-28T05:36:49.436Z,82.38
2022-07-28T05:37:25.044Z,82.38
2022-07-28T05:38:00.169Z,81.26
2022-07-28T05:38:35.476Z,80.65
2022-07-28T05:39:10.575Z,80.62
2022-07-28T05:39:45.921Z,79.80
2022-07-28T05:40:21.318Z,80.17
2022-07-28T05:40:56.539Z,79.77
2022-07-28T05:41:31.966Z,79.86
2022-07-28T05:42:07.468Z,79.46
2022-07-28T05:42:42.900Z,78.55
2022-07-28T05:43:18.523Z,79.36
2022-07-28T05:43:53.733Z,78.04
2022-07-28T05:44:29.058Z,78.14
2022-07-28T05:45:04.150Z,79.12
2022-07-28T05:45:39.567Z,78.10
2022-07-28T05:46:14.611Z,78.71
2022-07-28T05:46:49.761Z,78.71
2022-07-28T05:47:25.075Z,79.02
2022-07-28T05:48:00.283Z,77.90
2022-07-28T05:48:35.623Z,77.45
2022-07-28T05:49:10.951Z,78.27
2022-07-28T05:49:45.941Z,79.18
2022-07-28T05:50:20.980Z,78.88
2022-07-28T05:50:56.074Z,79.59
2022-07-28T05:51:31.303Z,78.47
2022-07-28T05:52:06.622Z,78.03
2022-07-28T05:52:42.031Z,78.03
2022-07-28T05:53:17.457Z,78.13
2022-07-28T05:53:52.538Z,75.90
2022-07-28T05:54:27.761Z,76.57
2022-07-28T05:55:02.773Z,76.57
2022-07-28T05:55:59.976Z,76.27
2022-07-28T05:56:13.177Z,76.27
2022-07-28T05:56:50.300Z,75.82
2022-07-28T05:57:23.629Z,75.73
2022-07-28T05:57:58.915Z,74.81
2022-07-28T05:58:34.339Z,74.27
2022-07-28T05:59:09.751Z,74.57
2022-07-28T05:59:45.065Z,74.81
2022-07-28T06:00:20.342Z,75.12
2022-07-28T06:00:55.567Z,75.08
2022-07-28T06:01:30.712Z,74.37
2022-07-28T06:02:05.946Z,73.97
2022-07-28T06:02:41.190Z,73.32
2022-07-28T06:03:16.439Z,73.83
2022-07-28T06:04:10.184Z,73.12
2022-07-28T06:04:28.387Z,72.92
2022-07-28T06:05:02.033Z,72.48
2022-07-28T06:05:37.262Z,71.16
2022-07-28T06:06:16.408Z,71.16
2022-07-28T06:06:47.782Z,73.90
2022-07-28T06:07:22.904Z,71.47
2022-07-28T06:07:58.142Z,70.25
2022-07-28T06:08:33.456Z,70.49
2022-07-28T06:09:08.862Z,70.69
2022-07-28T06:09:45.291Z,70.79
2022-07-28T06:10:19.278Z,70.59
2022-07-28T06:10:54.303Z,70.79
2022-07-28T06:11:29.431Z,71.03
2022-07-28T06:12:04.959Z,72.21
2022-07-28T06:12:40.471Z,70.79
2022-07-28T06:13:15.555Z,71.13
2022-07-28T06:13:50.686Z,71.23
2022-07-28T06:14:25.892Z,71.13
2022-07-28T06:15:01.403Z,71.13
2022-07-28T06:15:36.723Z,71.84
2022-07-28T06:16:13.424Z,71.73
2022-07-28T06:16:47.716Z,71.73
2022-07-28T06:17:22.712Z,72.48
2022-07-28T06:17:58.134Z,72.89
2022-07-28T06:18:33.054Z,72.38
2022-07-28T06:19:08.275Z,73.29
2022-07-28T06:19:43.594Z,72.38
2022-07-28T06:20:18.894Z,72.78
2022-07-28T06:20:54.115Z,72.17
2022-07-28T06:21:29.648Z,72.58
2022-07-28T06:22:05.359Z,72.89
2022-07-28T06:22:41.143Z,72.48
2022-07-28T06:23:16.342Z,73.29
2022-07-28T06:23:51.766Z,72.78
2022-07-28T06:24:26.991Z,72.58
2022-07-28T06:25:02.290Z,73.19
2022-07-28T06:25:37.405Z,73.29
2022-07-28T06:26:12.522Z,73.05
2022-07-28T06:26:47.921Z,73.29
2022-07-28T06:27:23.324Z,73.29
2022-07-28T06:27:58.574Z,73.39
2022-07-28T06:28:33.902Z,72.99
2022-07-28T06:29:09.214Z,73.19
2022-07-28T06:29:44.424Z,73.29
2022-07-28T06:30:19.745Z,73.19
2022-07-28T06:30:55.084Z,73.09
2022-07-28T06:31:30.418Z,73.36
2022-07-28T06:32:05.826Z,72.96
2022-07-28T06:32:40.883Z,72.85
2022-07-28T06:33:17.360Z,73.66
2022-07-28T06:33:51.341Z,73.16
2022-07-28T06:34:26.447Z,72.96
2022-07-28T06:35:01.850Z,73.56
2022-07-28T06:35:45.258Z,73.12
2022-07-28T06:36:12.069Z,72.11
2022-07-28T06:36:47.304Z,71.91
2022-07-28T06:37:22.895Z,71.09
2022-07-28T06:37:58.613Z,71.40
2022-07-28T06:38:33.846Z,72.01
2022-07-28T06:39:08.950Z,71.06
2022-07-28T06:39:44.377Z,71.37
2022-07-28T06:40:19.580Z,71.06
2022-07-28T06:40:54.826Z,70.65
2022-07-28T06:41:30.001Z,70.45
2022-07-28T06:42:05.305Z,70.86
2022-07-28T06:42:40.336Z,71.94
2022-07-28T06:43:15.751Z,69.81
2022-07-28T06:43:50.893Z,69.54
2022-07-28T06:44:42.513Z,69.54
2022-07-28T06:45:01.124Z,69.74
2022-07-28T06:45:36.557Z,70.65
2022-07-28T06:46:11.866Z,69.34
2022-07-28T06:46:47.454Z,69.31
2022-07-28T06:47:22.702Z,70.56
2022-07-28T06:47:57.831Z,71.03
2022-07-28T06:48:33.413Z,71.23
2022-07-28T06:49:08.346Z,70.18
2022-07-28T06:49:43.440Z,69.78
2022-07-28T06:50:26.067Z,69.27
2022-07-28T06:50:53.853Z,69.98
2022-07-28T06:51:29.153Z,69.14
2022-07-28T06:52:04.375Z,69.14
2022-07-28T06:52:39.794Z,68.54
2022-07-28T06:53:14.991Z,69.04
2022-07-28T06:53:50.333Z,68.71
2022-07-28T06:54:25.365Z,68.51
2022-07-28T06:55:00.276Z,68.30
2022-07-28T06:55:36.081Z,67.49
2022-07-28T06:56:15.661Z,67.80
2022-07-28T06:56:49.618Z,67.29
2022-07-28T06:57:21.762Z,67.26
2022-07-28T06:57:56.753Z,66.96
2022-07-28T06:58:32.161Z,67.66
2022-07-28T06:59:07.287Z,66.52
2022-07-28T06:59:42.358Z,66.15
2022-07-28T07:00:17.465Z,66.45
2022-07-28T07:00:52.615Z,66.35
2022-07-28T07:01:27.852Z,66.96
2022-07-28T07:02:03.396Z,66.55
2022-07-28T07:02:38.623Z,66.55
2022-07-28T07:03:13.815Z,65.75
2022-07-28T07:03:49.094Z,66.35
2022-07-28T07:04:24.481Z,65.84
2022-07-28T07:04:59.688Z,65.95
2022-07-28T07:05:35.155Z,65.31
2022-07-28T07:06:10.904Z,65.01
2022-07-28T07:06:46.085Z,65.01
2022-07-28T07:07:21.299Z,64.81
2022-07-28T07:07:56.713Z,63.59
2022-07-28T07:08:31.816Z,63.96
2022-07-28T07:09:07.032Z,63.67
2022-07-28T07:09:42.161Z,64.37
2022-07-28T07:10:17.796Z,63.56
2022-07-28T07:10:53.013Z,63.87
2022-07-28T07:11:28.227Z,64.17
2022-07-28T07:12:03.329Z,63.56
2022-07-28T07:12:38.644Z,63.53
2022-07-28T07:13:13.883Z,64.14
2022-07-28T07:13:49.084Z,64.64
2022-07-28T07:14:24.593Z,63.76
2022-07-28T07:15:00.118Z,63.67
2022-07-28T07:15:35.337Z,63.76
2022-07-28T07:16:10.642Z,64.10
2022-07-28T07:18:51.066Z,64.81
2022-07-28T07:19:26.459Z,65.92
2022-07-28T07:20:01.758Z,64.58
2022-07-28T07:20:37.141Z,64.07
2022-07-28T07:21:12.248Z,65.28
2022-07-28T07:21:47.351Z,65.28
2022-07-28T07:22:22.454Z,65.08
2022-07-28T07:22:57.877Z,65.05
2022-07-28T07:23:33.264Z,64.75
2022-07-28T07:24:08.377Z,64.17
2022-07-28T07:24:43.577Z,64.78
2022-07-28T07:25:18.700Z,64.75
2022-07-28T07:25:54.116Z,63.93
2022-07-28T07:26:29.129Z,64.24
2022-07-28T07:27:04.544Z,64.72
2022-07-28T07:27:39.828Z,64.21
2022-07-28T07:28:14.841Z,63.40
2022-07-28T07:28:50.032Z,62.80
2022-07-28T07:29:25.138Z,63.50
2022-07-28T07:30:00.446Z,62.60
2022-07-28T07:30:35.832Z,63.17
2022-07-28T07:31:11.118Z,63.27
2022-07-28T07:31:46.313Z,63.00
2022-07-28T07:32:21.369Z,63.40
2022-07-28T07:32:56.492Z,63.40
2022-07-28T07:33:31.922Z,64.31
2022-07-28T07:34:07.212Z,63.60
2022-07-28T07:34:42.502Z,63.10
2022-07-28T07:35:17.724Z,63.70
2022-07-28T07:35:52.831Z,63.60